Juliana Airport, Sint Maarten

1:36 PM AST on July 23, 2016 (GMT -0400)
| | Change Station

Elev -9999 ft 0.00 °N, 0.00 °E | Updated

Clear
Clear
86 °F
Feels Like 95 °F
N
13
Wind Variable Wind from East
Gusts mph

Today
High -- | Low -- °F
--% Chance of Precip.
Yesterday
High -- | Low -- °F
Precip. -- in
Pressure 30.01 in
Visibility 2.5 miles
Clouds Mostly Cloudy 1600 ft
Scattered Clouds 4400 ft
Heat Index 95 °F
Dew Point 75 °F
Humidity 71%
Rainfall --
Snow Depth Not available.
5:47 AM 6:49 PM
Waning Gibbous, 84% visible
METAR TNCM 231700Z 13017KT 4000 -SHRA BKN016TCU SCT044 26/23 Q1016 A3002 TEMPO SHRA
Pressure 30.01 in
Visibility 2.5 miles
Clouds Mostly Cloudy 1600 ft
Scattered Clouds 4400 ft
Heat Index 95 °F
Dew Point 75 °F
Humidity 71%
Rainfall --
Snow Depth Not available.
5:47 AM 6:49 PM
Waning Gibbous, 84% visible
METAR TNCM 231700Z 13017KT 4000 -SHRA BKN016TCU SCT044 26/23 Q1016 A3002 TEMPO SHRA

10-Day Weather Forecast

No radar image for this location.
×

Almanac

Astronomy

Jul. 23, 2016 Rise Set
Actual Time
Civil Twilight
Nautical Twilight
Astronomical Twilight
Moon
Length of Visible Light
Length of Day
Tomorrow will be .
, % of the Moon is Illuminated

Today's Extremes

Country Highs Country Lows

Community

WunderPhotos

Upload Photos

1,926,878 photos uploaded!

WunderBlog® & News

Nearby

Air Quality

  Air Quality AQ Index Pollutant
Not available.

Snow Depth

Station Depth Elevation

Earthquake Activity

City Distance Mag. Time & Date
Minimum magnitude displayed is 2.5.

Coastal Water Temperatures

Place Temperature

Stations

Nearby Weather Stations

Station Location Temp. Windchill Dew Point Humidity Wind Precip. Elev Updated Type